createdAt,value
2023-03-07T00:04:39.840Z,3.29
2023-03-07T00:09:42.873Z,3.23
2023-03-07T00:14:45.885Z,3.31
2023-03-07T00:19:47.647Z,3.36
2023-03-07T00:24:50.773Z,3.40
2023-03-07T00:29:52.537Z,3.52
2023-03-07T00:34:54.290Z,3.43
2023-03-07T00:39:57.455Z,3.40
2023-03-07T00:44:59.198Z,3.45
2023-03-07T00:50:00.923Z,3.41
2023-03-07T00:55:04.568Z,3.38
2023-03-07T01:00:08.983Z,3.39
2023-03-07T01:05:10.724Z,3.41
2023-03-07T01:10:13.893Z,3.41
2023-03-07T01:15:16.094Z,3.42
2023-03-07T01:20:18.029Z,3.38
2023-03-07T01:25:21.080Z,3.31
2023-03-07T01:30:22.972Z,3.17
2023-03-07T01:35:24.938Z,3.22
2023-03-07T01:40:30.717Z,3.16
2023-03-07T01:46:23.320Z,3.08
2023-03-07T01:51:28.558Z,3.10
2023-03-07T01:56:32.674Z,3.03
2023-03-07T02:01:34.574Z,2.99
2023-03-07T02:06:37.521Z,2.96
2023-03-07T02:11:42.015Z,2.98
2023-03-07T02:16:43.800Z,3.02
2023-03-07T02:21:48.523Z,3.01
2023-03-07T02:26:51.586Z,3.04
2023-03-07T02:31:53.402Z,3.12
2023-03-07T02:36:58.354Z,3.14
2023-03-07T02:42:04.423Z,3.14
2023-03-07T02:47:16.666Z,3.07
2023-03-07T02:52:19.182Z,2.98
2023-03-07T02:57:22.345Z,3.04
2023-03-07T03:02:24.088Z,3.03
2023-03-07T03:07:26.673Z,3.06
2023-03-07T03:12:29.737Z,3.10
2023-03-07T03:17:31.834Z,3.12
2023-03-07T03:22:33.597Z,3.09
2023-03-07T03:27:37.745Z,3.12
2023-03-07T03:32:40.401Z,3.06
2023-03-07T03:37:43.994Z,3.14
2023-03-07T03:42:47.311Z,3.12
2023-03-07T03:47:51.832Z,3.23
2023-03-07T03:52:53.883Z,3.20
2023-03-07T03:57:57.121Z,3.23
2023-03-07T04:02:59.091Z,3.23
2023-03-07T04:08:00.990Z,3.28
2023-03-07T04:13:04.285Z,3.30
2023-03-07T04:18:06.041Z,3.34
2023-03-07T04:23:07.834Z,3.38
2023-03-07T04:28:11.097Z,3.40
2023-03-07T04:33:12.974Z,3.38
2023-03-07T04:38:15.361Z,3.46
2023-03-07T04:43:18.594Z,3.52
2023-03-07T04:48:20.310Z,3.54
2023-03-07T04:53:22.416Z,3.59
2023-03-07T04:58:25.664Z,3.65
2023-03-07T05:03:27.536Z,3.65
2023-03-07T05:08:29.601Z,3.69
2023-03-07T05:13:33.211Z,3.73
2023-03-07T05:18:36.017Z,3.77
2023-03-07T05:23:37.982Z,3.74
2023-03-07T05:28:41.298Z,3.79
2023-03-07T05:33:43.083Z,3.79
2023-03-07T05:38:45.497Z,3.75
2023-03-07T05:43:48.631Z,3.61
2023-03-07T05:48:50.445Z,3.39
2023-03-07T05:53:52.232Z,3.27
2023-03-07T05:58:55.318Z,3.26
2023-03-07T06:03:57.302Z,3.24
2023-03-07T06:08:59.115Z,3.22
2023-03-07T06:14:02.200Z,3.24
2023-03-07T06:19:04.244Z,3.19
2023-03-07T06:24:07.295Z,3.15
2023-03-07T06:29:10.393Z,3.09
2023-03-07T06:34:12.595Z,3.13
2023-03-07T06:39:16.925Z,3.11
2023-03-07T06:44:20.033Z,3.19
2023-03-07T06:49:21.922Z,3.20
2023-03-07T06:54:24.476Z,3.23
2023-03-07T06:59:27.934Z,3.29
2023-03-07T07:04:29.932Z,3.40
2023-03-07T07:09:32.007Z,3.53
2023-03-07T07:14:36.627Z,3.59
2023-03-07T07:19:38.640Z,3.75
2023-03-07T07:24:40.674Z,3.67
2023-03-07T07:29:44.901Z,3.84
2023-03-07T07:34:46.629Z,3.90
2023-03-07T07:39:48.927Z,3.98
2023-03-07T07:44:52.104Z,4.04
2023-03-07T07:49:55.149Z,4.10
2023-03-07T07:54:57.445Z,4.22
2023-03-07T08:00:01.033Z,4.20
2023-03-07T08:05:06.408Z,4.21
2023-03-07T08:10:09.850Z,4.34
2023-03-07T08:15:13.589Z,4.45
2023-03-07T08:20:15.292Z,4.48
2023-03-07T08:25:18.059Z,4.54
2023-03-07T08:30:21.341Z,4.56
2023-03-07T08:35:23.082Z,4.51
2023-03-07T08:40:26.043Z,4.61
2023-03-07T08:45:29.135Z,4.58
2023-03-07T08:50:30.802Z,4.57
2023-03-07T08:55:35.041Z,4.59
2023-03-07T09:00:38.067Z,4.63
2023-03-07T09:05:39.778Z,4.73
2023-03-07T09:10:41.425Z,4.76
2023-03-07T09:15:44.404Z,4.72
2023-03-07T09:20:46.053Z,4.63
2023-03-07T09:25:47.721Z,4.52
2023-03-07T09:30:50.912Z,4.44
2023-03-07T09:35:52.548Z,4.23
2023-03-07T09:40:54.166Z,4.19
2023-03-07T09:46:00.126Z,4.19
2023-03-07T09:51:11.490Z,4.18
2023-03-07T09:56:15.686Z,3.96
2023-03-07T10:01:21.136Z,3.92
2023-03-07T10:06:25.406Z,3.93
2023-03-07T10:11:41.425Z,3.72
2023-03-07T10:16:47.885Z,3.77
2023-03-07T10:21:52.522Z,3.72
2023-03-07T10:26:57.785Z,3.79
2023-03-07T10:32:13.832Z,3.79
2023-03-07T10:37:17.738Z,3.73
2023-03-07T10:42:20.287Z,3.73
2023-03-07T10:47:24.142Z,3.71
2023-03-07T10:52:32.162Z,3.58
2023-03-07T10:57:33.861Z,3.49
2023-03-07T11:02:37.621Z,3.54
2023-03-07T11:07:39.517Z,3.45
2023-03-07T11:12:44.485Z,3.48
2023-03-07T11:17:48.077Z,3.46
2023-03-07T11:22:49.850Z,3.48
2023-03-07T11:27:52.941Z,3.53
2023-03-07T11:33:03.257Z,3.57
2023-03-07T11:38:07.135Z,3.53
2023-03-07T11:43:15.186Z,3.56
2023-03-07T11:48:42.706Z,3.66
2023-03-07T11:53:53.318Z,3.63
2023-03-07T11:59:15.617Z,3.71
2023-03-07T12:04:31.381Z,3.79
2023-03-07T12:09:39.820Z,3.78
2023-03-07T12:14:45.824Z,3.88
2023-03-07T12:20:11.914Z,3.93
2023-03-07T12:25:21.069Z,3.94
2023-03-07T12:30:24.883Z,3.95
2023-03-07T12:35:30.836Z,4.05
2023-03-07T12:40:34.643Z,4.09
2023-03-07T12:45:41.443Z,4.10
2023-03-07T12:50:47.542Z,4.24
2023-03-07T12:55:50.405Z,4.45
2023-03-07T13:00:54.392Z,4.48
2023-03-07T13:05:57.480Z,4.52
2023-03-07T13:10:59.119Z,4.60
2023-03-07T13:16:04.669Z,4.67
2023-03-07T13:21:09.458Z,4.76
2023-03-07T13:26:12.207Z,4.92
2023-03-07T13:31:26.783Z,4.69
2023-03-07T13:36:34.443Z,4.64
2023-03-07T13:41:46.905Z,4.54
2023-03-07T13:46:48.826Z,4.41
2023-03-07T13:52:24.191Z,4.19
2023-03-07T13:57:31.805Z,4.10
2023-03-07T14:02:34.913Z,4.46
2023-03-07T14:07:36.998Z,4.52
2023-03-07T14:12:44.692Z,4.32
2023-03-07T14:17:53.676Z,4.14
2023-03-07T14:23:02.269Z,3.84
2023-03-07T14:28:19.429Z,3.68
2023-03-07T14:33:21.126Z,3.80
2023-03-07T14:38:24.416Z,3.90
2023-03-07T14:43:36.439Z,3.91
2023-03-07T14:48:44.564Z,3.98
2023-03-07T14:53:46.795Z,3.95
2023-03-07T14:58:51.093Z,3.89
2023-03-07T15:03:53.756Z,3.84
2023-03-07T15:08:57.631Z,3.82
2023-03-07T15:14:01.823Z,3.86
2023-03-07T15:19:05.247Z,3.83
2023-03-07T15:24:13.013Z,3.81
2023-03-07T15:29:16.204Z,3.71
2023-03-07T15:34:22.522Z,3.60
2023-03-07T15:39:31.317Z,3.52
2023-03-07T15:44:34.747Z,3.48
2023-03-07T15:49:43.154Z,3.46
2023-03-07T15:54:44.847Z,3.41
2023-03-07T15:59:51.836Z,3.44
2023-03-07T16:04:53.731Z,3.42
2023-03-07T16:09:55.408Z,3.45
2023-03-07T16:14:58.436Z,3.40
2023-03-07T16:20:00.211Z,3.30
2023-03-07T16:25:02.384Z,3.35
2023-03-07T16:30:12.322Z,3.34
2023-03-07T16:35:15.162Z,3.36
2023-03-07T16:40:17.446Z,3.25
2023-03-07T16:45:21.845Z,3.16
2023-03-07T16:50:25.491Z,3.09
2023-03-07T16:55:27.246Z,3.03
2023-03-07T17:00:31.088Z,3.03
2023-03-07T17:05:32.767Z,2.98
2023-03-07T17:10:34.622Z,2.92
2023-03-07T17:15:38.150Z,2.92
2023-03-07T17:20:40.148Z,2.93
2023-03-07T17:25:41.785Z,2.79
2023-03-07T17:30:45.515Z,2.80
2023-03-07T17:35:47.321Z,2.71
2023-03-07T17:40:53.731Z,2.70
2023-03-07T17:45:56.723Z,2.67
2023-03-07T17:50:58.411Z,2.59
2023-03-07T17:56:06.582Z,2.59
2023-03-07T18:01:11.175Z,2.39
2023-03-07T18:06:13.287Z,2.29
2023-03-07T18:11:15.060Z,2.15
2023-03-07T18:16:18.097Z,2.23
2023-03-07T18:21:23.455Z,2.17
2023-03-07T18:26:25.198Z,2.15
2023-03-07T18:31:28.668Z,2.13
2023-03-07T18:36:30.521Z,2.10
2023-03-07T18:41:32.273Z,2.01
2023-03-07T18:46:37.114Z,2.05
2023-03-07T18:51:39.404Z,2.06
2023-03-07T18:56:42.535Z,2.04
2023-03-07T19:01:45.760Z,2.09
2023-03-07T19:06:48.502Z,2.10
2023-03-07T19:11:50.292Z,2.13
2023-03-07T19:16:53.525Z,2.18
2023-03-07T19:21:55.340Z,2.23
2023-03-07T19:26:57.658Z,2.20
2023-03-07T19:32:00.734Z,2.17
2023-03-07T19:37:02.556Z,2.18
2023-03-07T19:42:04.630Z,2.15
2023-03-07T19:47:07.679Z,2.15
2023-03-07T19:52:09.440Z,2.17
2023-03-07T19:57:14.760Z,2.23
2023-03-07T20:02:17.869Z,2.30
2023-03-07T20:07:19.583Z,2.34
2023-03-07T20:12:21.347Z,2.36
2023-03-07T20:17:24.503Z,2.23
2023-03-07T20:22:28.217Z,2.20
2023-03-07T20:27:29.948Z,2.15
2023-03-07T20:32:33.044Z,2.08
2023-03-07T20:37:35.938Z,2.02
2023-03-07T20:42:37.624Z,2.01
2023-03-07T20:47:40.753Z,2.06
2023-03-07T20:52:42.491Z,2.05
2023-03-07T20:57:44.249Z,2.11
2023-03-07T21:02:48.277Z,2.09
2023-03-07T21:07:50.051Z,2.17
2023-03-07T21:12:51.753Z,2.42
2023-03-07T21:17:54.857Z,2.35
2023-03-07T21:22:56.629Z,2.30
2023-03-07T21:27:58.664Z,2.28
2023-03-07T21:33:01.776Z,2.16
2023-03-07T21:38:03.628Z,2.05
2023-03-07T21:43:05.336Z,1.98
2023-03-07T21:48:08.677Z,1.92
2023-03-07T21:53:10.559Z,1.86
2023-03-07T21:58:12.261Z,1.81
2023-03-07T22:03:15.352Z,1.68
2023-03-07T22:08:17.541Z,1.63
2023-03-07T22:13:19.263Z,1.58
2023-03-07T22:18:22.397Z,1.59
2023-03-07T22:23:26.453Z,1.56
2023-03-07T22:28:28.254Z,1.65
2023-03-07T22:33:31.287Z,1.74
2023-03-07T22:38:33.303Z,1.82
2023-03-07T22:43:35.240Z,1.83
2023-03-07T22:48:38.308Z,1.82
2023-03-07T22:53:40.121Z,1.86
2023-03-07T22:58:41.980Z,1.81
2023-03-07T23:03:45.107Z,1.88
2023-03-07T23:08:47.067Z,1.95
2023-03-07T23:13:48.815Z,1.98
2023-03-07T23:18:52.068Z,1.94
2023-03-07T23:23:54.219Z,1.90
2023-03-07T23:28:56.013Z,1.88
2023-03-07T23:34:01.222Z,2.00
2023-03-07T23:39:03.347Z,2.03
2023-03-07T23:44:05.145Z,2.05
2023-03-07T23:49:08.214Z,2.08
2023-03-07T23:54:09.920Z,2.05
2023-03-07T23:59:11.615Z,2.02
